Anstey, United Kingdom
Current Conditions -  °F | °C
As of 10:50 PM on Wednesday 26 Nov 2014 (Local Time) from EGNX Reporting Station
Moderate Fog Moderate Fog  
Wind Chill: 45°   Ceiling: Unl
Heat Index: 45°   Visibility: 0.12mi
Dew Point: 45°   Wind: 2mph
Humidity: 100%   Direction: 10°N
Pressure: 29.74"   Gusts: NA
Location:  52.65°N, 1.18°W
Report Text: EGNX 262250Z 01002KT 0200 R27/0500 FG VV/// 07/07 Q1007
Loading
Personal Weather Stations






























Interactive Weather Map New forecast layout! Learn more

10-Day Weather Forecast

Advertisements
Track Severe Weather on mobile